Terminal Aerodrome Forecast
Issued by NWS Sterling, VA

Home | Current Version | Previous Version | Text Only | Print | Product List | Glossary On
Versions: 1 2 3 4 5 6 7 8 9 10 11 12 13 14 15 16 17 18
000
FTUS41 KLWX 291731
TAFMRB
TAF
KMRB 291731Z 2918/3018 29004KT P6SM SKC
     FM292100 22005KT P6SM FEW200
     FM300000 16006KT P6SM SCT150
     FM300500 19008KT P6SM OVC080
     FM301200 23007KT P6SM BKN040
     FM301500 27011KT P6SM BKN045
     FM301700 28014G23KT P6SM SCT040=

USA.gov is the U.S. government's official web portal to all federal, state and local government web resources and services.